Time;durP1;ratioP1;P1;durP2;ratioP2;P2;SDS_P1;SDS_P2;PMS_P1;PMS_P2;Temp;Humidity;BMP_temperature;BMP_pressure;BME280_temperature;BME280_humidity;BME280_pressure;Samples;Min_cycle;Max_cycle;Signal;HPM_P1;HPM_P2
2023/07/12 00:00:19;;;;;;;18.23;15.55;;;589.50;2432.00;;;;;;5072375;28;20100;-62
2023/07/12 00:02:44;;;;;;;15.55;13.90;;;589.40;2432.00;;;;;;5085090;28;20486;-62
2023/07/12 00:05:10;;;;;;;14.25;12.75;;;589.40;2432.00;;;;;;5089757;28;20114;-68
2023/07/12 00:07:36;;;;;;;15.63;13.95;;;589.50;2432.00;;;;;;5089973;28;20115;-62
2023/07/12 00:10:02;;;;;;;15.07;12.98;;;589.50;2432.00;;;;;;5088946;28;20539;-65
2023/07/12 00:12:27;;;;;;;13.90;12.50;;;589.50;2432.00;;;;;;5076291;28;20024;-64
2023/07/12 00:14:53;;;;;;;14.73;12.18;;;589.50;2432.00;;;;;;5089878;28;20051;-63
2023/07/12 00:17:21;;;;;;;19.80;12.32;;;589.50;2432.00;;;;;;5089653;28;20043;-64
2023/07/12 00:19:47;;;;;;;13.52;11.40;;;589.50;2432.00;;;;;;5089978;28;20016;-62
2023/07/12 00:22:13;;;;;;;18.00;12.73;;;589.50;2432.00;;;;;;5089800;28;20027;-63
2023/07/12 00:24:38;;;;;;;14.05;12.63;;;589.40;2432.00;;;;;;5087764;28;20053;-64
2023/07/12 00:27:04;;;;;;;14.57;13.07;;;589.40;2432.00;;;;;;5089853;28;20512;-63
2023/07/12 00:29:30;;;;;;;17.15;15.32;;;589.30;2432.00;;;;;;5089463;28;20116;-65
2023/07/12 00:31:56;;;;;;;20.90;14.13;;;589.20;2432.00;;;;;;5089421;28;20027;-63
2023/07/12 00:34:21;;;;;;;18.58;13.30;;;589.20;2432.00;;;;;;5089363;28;20116;-64
2023/07/12 00:36:47;;;;;;;14.18;11.32;;;589.10;2432.00;;;;;;5089959;28;20065;-63
2023/07/12 00:39:13;;;;;;;13.40;11.23;;;589.10;2432.00;;;;;;5089563;28;20378;-64
2023/07/12 00:41:44;;;;;;;12.60;11.30;;;589.10;2432.00;;;;;;5089055;28;20019;-63
2023/07/12 00:44:16;;;;;;;12.02;10.77;;;589.10;2432.00;;;;;;5089176;28;20102;-63
2023/07/12 00:46:47;;;;;;;12.82;11.57;;;589.10;2432.00;;;;;;5088927;28;20089;-63
2023/07/12 00:49:12;;;;;;;11.65;10.20;;;589.10;2432.00;;;;;;5089241;28;20056;-63
2023/07/12 00:51:44;;;;;;;17.77;12.23;;;589.00;2432.00;;;;;;5088944;28;20054;-63
2023/07/12 00:54:13;;;;;;;14.40;11.07;;;588.90;2432.00;;;;;;5089156;28;20047;-63
2023/07/12 00:56:39;;;;;;;14.70;11.95;;;588.80;2432.00;;;;;;5088912;28;20016;-63
2023/07/12 00:59:18;;;;;;;15.00;11.85;;;588.80;2432.00;;;;;;5089274;28;20024;-62
2023/07/12 01:01:45;;;;;;;15.98;11.65;;;588.80;2432.00;;;;;;5088533;28;20024;-63
2023/07/12 01:04:16;;;;;;;11.90;10.68;;;588.90;2432.00;;;;;;5089189;28;20027;-63
2023/07/12 01:06:42;;;;;;;14.77;11.57;;;588.90;2432.00;;;;;;5088618;28;20493;-63
2023/07/12 01:09:12;;;;;;;12.93;10.75;;;588.80;2432.00;;;;;;5089226;28;20043;-63
2023/07/12 01:11:39;;;;;;;11.70;10.63;;;588.90;2432.00;;;;;;5088782;28;20028;-63
2023/07/12 01:14:10;;;;;;;11.88;10.25;;;588.90;2432.00;;;;;;5089077;28;20041;-63
2023/07/12 01:16:37;;;;;;;12.07;10.13;;;589.00;2432.00;;;;;;5089000;28;20036;-64
2023/07/12 01:19:03;;;;;;;12.90;10.45;;;589.00;2432.00;;;;;;5089036;28;20016;-63
2023/07/12 01:21:32;;;;;;;14.13;11.82;;;588.90;2432.00;;;;;;5088701;28;20024;-62
2023/07/12 01:23:58;;;;;;;13.35;11.60;;;588.90;2432.00;;;;;;5092702;28;20028;-63
2023/07/12 01:26:28;;;;;;;13.75;10.00;;;588.80;2432.00;;;;;;5093010;28;20040;-66
2023/07/12 01:29:00;;;;;;;15.65;10.93;;;588.80;2432.00;;;;;;5093195;28;20031;-63
2023/07/12 01:31:27;;;;;;;11.32;10.00;;;564.10;2432.00;;;;;;5092881;28;20031;-62
2023/07/12 01:33:54;;;;;;;11.02;9.88;;;564.10;2432.00;;;;;;5093124;28;20021;-63
2023/07/12 01:36:21;;;;;;;11.82;10.18;;;564.10;2432.00;;;;;;5092743;28;20016;-63
2023/07/12 01:38:49;;;;;;;14.75;10.55;;;564.10;2432.00;;;;;;5093125;28;20486;-64
2023/07/12 01:41:14;;;;;;;12.98;10.68;;;564.10;2432.00;;;;;;5093029;28;20028;-63
2023/07/12 01:43:40;;;;;;;15.88;11.93;;;564.10;2432.00;;;;;;5092431;28;20074;-64
2023/07/12 01:46:06;;;;;;;14.60;10.48;;;564.10;2432.00;;;;;;5092442;28;20432;-67
2023/07/12 01:48:32;;;;;;;11.40;10.27;;;564.10;2432.00;;;;;;5092688;28;20024;-62
2023/07/12 01:50:59;;;;;;;11.98;9.65;;;564.10;2432.00;;;;;;5092438;28;20016;-62
2023/07/12 01:53:26;;;;;;;12.98;10.70;;;564.00;2432.00;;;;;;5092600;28;20394;-62
2023/07/12 01:55:51;;;;;;;15.13;10.95;;;564.00;2432.00;;;;;;5092011;28;20020;-62
2023/07/12 01:58:17;;;;;;;12.18;11.05;;;564.00;2432.00;;;;;;5092923;28;20081;-62
2023/07/12 02:00:43;;;;;;;11.13;9.88;;;564.00;2432.00;;;;;;5092284;28;20020;-62
2023/07/12 02:03:08;;;;;;;11.82;10.52;;;564.00;2432.00;;;;;;5092164;28;20119;-63
2023/07/12 02:05:34;;;;;;;14.95;9.75;;;564.00;2432.00;;;;;;5092343;28;20027;-62
2023/07/12 02:08:00;;;;;;;11.70;10.50;;;564.00;2432.00;;;;;;5092245;28;20035;-63
2023/07/12 02:10:26;;;;;;;12.90;10.23;;;564.00;2432.00;;;;;;5091916;28;20420;-63
2023/07/12 02:12:52;;;;;;;17.13;10.98;;;564.00;2432.00;;;;;;5092093;28;20031;-62
2023/07/12 02:15:18;;;;;;;13.13;10.63;;;564.00;2432.00;;;;;;5092237;28;20061;-60
2023/07/12 02:17:45;;;;;;;10.63;9.30;;;564.00;2432.00;;;;;;5092062;28;20031;-62
2023/07/12 02:20:12;;;;;;;12.18;10.73;;;564.00;2432.00;;;;;;5092244;28;20021;-63
2023/07/12 02:22:43;;;;;;;12.02;10.68;;;564.00;2432.00;;;;;;5092167;28;20035;-68
2023/07/12 02:25:13;;;;;;;10.35;9.27;;;564.00;2432.00;;;;;;5091614;28;20545;-63
2023/07/12 02:27:39;;;;;;;12.52;10.77;;;564.00;2432.00;;;;;;5091825;28;20051;-63
2023/07/12 02:30:08;;;;;;;10.43;9.40;;;564.00;2432.00;;;;;;5092140;28;20016;-62
2023/07/12 02:32:34;;;;;;;13.13;10.93;;;564.00;2432.00;;;;;;5092590;28;20110;-62
2023/07/12 02:35:00;;;;;;;11.30;10.23;;;563.90;2432.00;;;;;;5091938;28;20142;-63
2023/07/12 02:37:26;;;;;;;11.60;10.45;;;563.80;2432.00;;;;;;5091968;28;20039;-62
2023/07/12 02:39:51;;;;;;;11.23;10.13;;;563.80;2432.00;;;;;;5091462;28;20618;-63
2023/07/12 02:42:17;;;;;;;10.88;9.73;;;563.80;2432.00;;;;;;5091770;28;20028;-63
2023/07/12 02:44:43;;;;;;;11.50;10.23;;;563.70;2432.00;;;;;;5091598;28;20370;-63
2023/07/12 02:47:10;;;;;;;10.52;9.35;;;563.80;2432.00;;;;;;5091122;28;20071;-64
2023/07/12 02:49:39;;;;;;;12.90;10.63;;;563.80;2432.00;;;;;;5091739;28;20020;-62
2023/07/12 02:52:07;;;;;;;13.70;9.88;;;563.80;2432.00;;;;;;5091517;28;20512;-62
2023/07/12 02:54:33;;;;;;;11.38;10.10;;;563.90;2432.00;;;;;;5091685;28;20020;-63
2023/07/12 02:56:59;;;;;;;13.75;10.65;;;564.00;2432.00;;;;;;5091216;28;20085;-62
2023/07/12 02:59:26;;;;;;;13.18;10.85;;;564.00;2432.00;;;;;;5091572;28;20047;-63
2023/07/12 03:01:52;;;;;;;10.15;9.15;;;564.00;2432.00;;;;;;5091003;28;20470;-63
2023/07/12 03:04:19;;;;;;;11.80;9.40;;;564.00;2432.00;;;;;;5091234;28;20378;-63
2023/07/12 03:06:46;;;;;;;15.45;11.20;;;564.00;2432.00;;;;;;5091023;28;20066;-63
2023/07/12 03:09:12;;;;;;;10.88;9.88;;;564.00;2432.00;;;;;;5091125;28;20068;-62
2023/07/12 03:11:37;;;;;;;11.10;9.40;;;564.10;2432.00;;;;;;5091137;28;20284;-62
2023/07/12 03:14:04;;;;;;;10.52;9.25;;;564.00;2432.00;;;;;;5091341;28;20024;-62
2023/07/12 03:16:30;;;;;;;13.13;9.85;;;564.00;2432.00;;;;;;5090639;28;20488;-63
2023/07/12 03:18:56;;;;;;;11.07;9.98;;;564.00;2432.00;;;;;;5091223;28;20050;-63
2023/07/12 03:21:22;;;;;;;13.75;10.88;;;564.00;2432.00;;;;;;5090850;28;20105;-63
2023/07/12 03:23:48;;;;;;;11.82;10.60;;;563.90;2432.00;;;;;;5090678;28;20382;-65
2023/07/12 03:26:14;;;;;;;14.32;10.10;;;564.00;2432.00;;;;;;5090556;28;20032;-63
2023/07/12 03:28:40;;;;;;;10.60;8.98;;;564.10;2432.00;;;;;;5090655;28;20030;-65
2023/07/12 03:31:10;;;;;;;13.68;10.05;;;564.10;2432.00;;;;;;5090959;28;20020;-63
2023/07/12 03:33:36;;;;;;;12.10;10.10;;;588.90;2432.00;;;;;;5091270;28;20020;-62
2023/07/12 03:36:03;;;;;;;14.35;10.13;;;589.10;2432.00;;;;;;5090469;28;20020;-68
2023/07/12 03:38:30;;;;;;;13.13;10.10;;;589.30;2432.00;;;;;;5090652;28;20081;-63
2023/07/12 03:41:01;;;;;;;11.43;10.23;;;589.50;2432.00;;;;;;5090506;28;20020;-62
2023/07/12 03:43:27;;;;;;;11.40;10.23;;;589.70;2432.00;;;;;;5090213;28;20031;-63
2023/07/12 03:45:53;;;;;;;12.38;10.30;;;614.40;2432.00;;;;;;5089828;28;20021;-62
2023/07/12 03:48:20;;;;;;;12.65;10.38;;;614.40;2432.00;;;;;;5090245;28;20082;-63
2023/07/12 03:50:50;;;;;;;13.20;10.00;;;614.60;2432.00;;;;;;5090404;28;20020;-63
2023/07/12 03:53:16;;;;;;;13.27;10.23;;;614.40;2432.00;;;;;;5090596;28;20077;-62
2023/07/12 03:55:44;;;;;;;10.48;9.38;;;614.50;2432.00;;;;;;5089851;28;20031;-63
2023/07/12 03:58:11;;;;;;;12.68;10.25;;;614.40;2432.00;;;;;;5090032;28;20028;-62
2023/07/12 04:00:42;;;;;;;12.70;9.68;;;614.60;2432.00;;;;;;5090231;28;20370;-62
2023/07/12 04:03:08;;;;;;;11.63;10.43;;;614.80;2432.00;;;;;;5090038;28;20316;-62
2023/07/12 04:05:38;;;;;;;10.73;9.68;;;614.90;2432.00;;;;;;5089974;28;20043;-62
2023/07/12 04:08:04;;;;;;;12.02;9.25;;;615.10;2432.00;;;;;;5090238;28;20130;-63
2023/07/12 04:10:31;;;;;;;12.10;9.32;;;615.30;2432.00;;;;;;5089603;28;20481;-62
2023/07/12 04:12:57;;;;;;;16.25;9.82;;;640.10;2432.00;;;;;;5088847;28;20367;-62
2023/07/12 04:15:23;;;;;;;10.98;9.88;;;640.10;2432.00;;;;;;5090119;28;20382;-62
2023/07/12 04:17:49;;;;;;;10.82;9.10;;;640.00;2432.00;;;;;;5089809;28;20028;-63
2023/07/12 04:20:15;;;;;;;11.20;9.68;;;640.00;2432.00;;;;;;5090101;28;20100;-67
2023/07/12 04:22:41;;;;;;;15.00;10.82;;;640.00;2432.00;;;;;;5089747;28;20012;-62
2023/07/12 04:25:11;;;;;;;11.15;9.50;;;640.10;2432.00;;;;;;5073146;28;20059;-62
2023/07/12 04:27:37;;;;;;;11.90;9.63;;;640.00;2432.00;;;;;;5070393;28;20036;-62
2023/07/12 04:30:07;;;;;;;10.20;8.90;;;640.30;2432.00;;;;;;5068934;28;20473;-63
2023/07/12 04:32:34;;;;;;;11.80;9.65;;;640.40;2432.00;;;;;;5082218;28;20032;-62
2023/07/12 04:35:00;;;;;;;11.02;9.85;;;640.50;2432.00;;;;;;5080277;28;20031;-63
2023/07/12 04:37:26;;;;;;;13.60;10.45;;;640.60;2432.00;;;;;;5089606;28;20081;-66
2023/07/12 04:39:52;;;;;;;11.00;9.80;;;665.60;2432.00;;;;;;5089365;28;20031;-62
2023/07/12 04:42:18;;;;;;;11.18;10.02;;;666.40;2432.00;;;;;;5089334;28;20032;-63
2023/07/12 04:44:44;;;;;;;12.32;10.75;;;742.90;2406.40;;;;;;5089572;28;20044;-64
2023/07/12 04:47:10;;;;;;;10.88;9.77;;;794.40;2150.40;;;;;;5088858;28;20087;-63
2023/07/12 04:49:36;;;;;;;12.60;11.40;;;845.70;1920.00;;;;;;5089755;28;20051;-63
2023/07/12 04:52:04;;;;;;;13.20;11.77;;;896.10;1792.00;;;;;;5089084;28;20473;-64
2023/07/12 04:54:32;;;;;;;11.25;10.10;;;922.00;1689.60;;;;;;5089174;28;20028;-63
2023/07/12 04:56:59;;;;;;;11.48;9.93;;;;;;;;;;5088142;28;20046;-64
2023/07/12 04:59:25;;;;;;;11.70;10.60;;;947.60;1612.80;;;;;;5089345;28;20060;-66
2023/07/12 05:01:51;;;;;;;12.38;10.85;;;948.10;1587.20;;;;;;5088960;28;20082;-63
2023/07/12 05:04:17;;;;;;;11.32;10.27;;;973.20;1536.00;;;;;;5089357;28;20028;-63
2023/07/12 05:06:44;;;;;;;19.48;12.68;;;973.70;1510.40;;;;;;5089109;28;20021;-67
2023/07/12 05:09:10;;;;;;;11.75;10.65;;;973.20;1536.00;;;;;;5088948;28;20035;-63
2023/07/12 05:11:36;;;;;;;12.95;11.45;;;998.90;1484.80;;;;;;5088938;28;20165;-63
2023/07/12 05:14:02;;;;;;;15.68;12.77;;;1024.30;1459.20;;;;;;5088968;28;20498;-65
2023/07/12 05:16:27;;;;;;;13.20;11.70;;;1024.00;1459.20;;;;;;5089216;28;20450;-67
2023/07/12 05:18:53;;;;;;;14.25;12.68;;;1024.40;1433.60;;;;;;5089216;28;20020;-66
2023/07/12 05:21:20;;;;;;;13.63;12.38;;;1049.60;1408.00;;;;;;5088924;28;20020;-66
2023/07/12 05:23:46;;;;;;;13.68;12.38;;;1075.40;1356.80;;;;;;5089199;28;20108;-66
2023/07/12 05:26:12;;;;;;;14.30;13.00;;;1075.80;1331.20;;;;;;5088730;28;20115;-65
2023/07/12 05:28:38;;;;;;;14.75;13.32;;;1101.00;1331.20;;;;;;5089297;28;20095;-64
2023/07/12 05:31:11;;;;;;;13.65;12.35;;;1101.20;1331.20;;;;;;5088939;28;20111;-66
2023/07/12 05:33:37;;;;;;;12.48;11.27;;;1101.20;1280.00;;;;;;5089601;28;20103;-63
2023/07/12 05:36:03;;;;;;;11.80;10.80;;;1101.00;1331.20;;;;;;5088901;28;20036;-66
2023/07/12 05:38:29;;;;;;;12.70;11.43;;;1101.30;1305.60;;;;;;5089031;28;20022;-66
2023/07/12 05:41:02;;;;;;;11.98;10.85;;;1101.40;1280.00;;;;;;5088723;28;20032;-65
2023/07/12 05:43:28;;;;;;;12.85;11.85;;;1101.20;1305.60;;;;;;5088974;28;20025;-66
2023/07/12 05:45:56;;;;;;;12.98;11.68;;;1101.70;1254.40;;;;;;5088741;28;20027;-64
2023/07/12 05:48:23;;;;;;;14.15;12.98;;;1101.70;1228.80;;;;;;5088753;28;20047;-65
2023/07/12 05:50:58;;;;;;;14.30;13.10;;;1126.60;1280.00;;;;;;5088549;28;20019;-66
2023/07/12 05:53:23;;;;;;;13.85;12.77;;;1127.00;1254.40;;;;;;5088769;28;20525;-66
2023/07/12 05:55:56;;;;;;;14.15;13.02;;;1127.00;1254.40;;;;;;5088639;28;20055;-65
2023/07/12 05:58:22;;;;;;;14.07;12.88;;;1152.40;1228.80;;;;;;5088481;28;20533;-64
2023/07/12 06:00:53;;;;;;;14.10;12.90;;;1177.60;1203.20;;;;;;5088226;28;20034;-66
2023/07/12 06:03:19;;;;;;;13.68;12.43;;;1177.60;1203.20;;;;;;5088632;28;20478;-65
2023/07/12 06:05:45;;;;;;;13.60;12.50;;;1178.00;1203.20;;;;;;5088848;28;20069;-65
2023/07/12 06:08:11;;;;;;;14.68;13.38;;;1178.20;1177.60;;;;;;5089071;28;20505;-66
2023/07/12 06:10:36;;;;;;;13.20;12.13;;;1178.10;1177.60;;;;;;5092531;28;20058;-66
2023/07/12 06:13:02;;;;;;;14.15;12.88;;;1178.20;1177.60;;;;;;5092077;28;20106;-65
2023/07/12 06:15:28;;;;;;;14.40;13.13;;;1177.70;1228.80;;;;;;5092188;28;20032;-65
2023/07/12 06:17:53;;;;;;;15.48;14.18;;;1178.00;1203.20;;;;;;5092214;28;20028;-65
2023/07/12 06:20:19;;;;;;;14.98;13.77;;;1203.20;1203.20;;;;;;5092006;28;20107;-65
2023/07/12 06:22:45;;;;;;;15.60;14.27;;;1178.30;1203.20;;;;;;5092352;28;20036;-65
2023/07/12 06:25:10;;;;;;;14.48;13.27;;;1178.20;1203.20;;;;;;5091673;28;20052;-65
2023/07/12 06:27:36;;;;;;;15.27;13.88;;;1203.30;1203.20;;;;;;5092012;28;20073;-66
2023/07/12 06:30:02;;;;;;;16.25;15.10;;;1203.70;1203.20;;;;;;5091970;28;20012;-65
2023/07/12 06:32:28;;;;;;;14.55;13.57;;;1228.80;1177.60;;;;;;5092354;28;20032;-66
2023/07/12 06:34:54;;;;;;;15.55;14.35;;;1229.20;1177.60;;;;;;5091945;28;20019;-65
2023/07/12 06:37:19;;;;;;;16.23;15.05;;;1229.20;1177.60;;;;;;5091884;28;20456;-64
2023/07/12 06:39:46;;;;;;;16.42;15.07;;;1229.20;1177.60;;;;;;5091987;28;20435;-65
2023/07/12 06:42:11;;;;;;;17.90;16.40;;;1229.30;1177.60;;;;;;5091549;28;20043;-65
2023/07/12 06:44:37;;;;;;;16.30;15.20;;;1229.70;1152.00;;;;;;5091773;28;20023;-66
2023/07/12 06:47:03;;;;;;;16.58;14.98;;;1229.70;1152.00;;;;;;5091249;28;20044;-65
2023/07/12 06:49:29;;;;;;;16.08;14.88;;;1254.90;1126.40;;;;;;5091263;28;20458;-64
2023/07/12 06:51:56;;;;;;;16.77;15.48;;;1280.40;1100.80;;;;;;5090899;28;20036;-67
2023/07/12 06:54:21;;;;;;;16.80;15.55;;;1280.70;1075.20;;;;;;5091545;28;20031;-65
2023/07/12 06:56:48;;;;;;;17.13;15.98;;;1280.00;1100.80;;;;;;5089870;28;20427;-63
2023/07/12 06:59:14;;;;;;;16.27;15.00;;;1280.40;1100.80;;;;;;5072895;28;20107;-64
2023/07/12 07:01:39;;;;;;;15.55;14.65;;;1305.60;1075.20;;;;;;5091481;28;20131;-64
2023/07/12 07:04:05;;;;;;;16.15;15.15;;;1280.70;1075.20;;;;;;5091468;28;20568;-64
2023/07/12 07:06:31;;;;;;;17.33;16.13;;;;;;;;;;5091064;28;20024;-64
2023/07/12 07:08:57;;;;;;;17.23;15.75;;;;;;;;;;5091184;28;20683;-65
2023/07/12 07:11:23;;;;;;;17.30;15.82;;;1305.60;1100.80;;;;;;5091107;28;20028;-65
2023/07/12 07:13:50;;;;;;;17.60;15.98;;;1331.40;1049.60;;;;;;5090633;28;20031;-65
2023/07/12 07:16:16;;;;;;;17.00;15.93;;;1331.70;1049.60;;;;;;5090980;28;20032;-65
2023/07/12 07:18:42;;;;;;;17.13;15.82;;;1332.10;1024.00;;;;;;5083744;28;20067;-65
2023/07/12 07:21:08;;;;;;;17.33;16.00;;;1356.90;1049.60;;;;;;5078331;28;20160;-64
2023/07/12 07:23:33;;;;;;;17.33;16.00;;;1357.20;1024.00;;;;;;5070418;28;20382;-64
2023/07/12 07:26:07;;;;;;;18.65;17.45;;;1357.40;1024.00;;;;;;5070353;28;20062;-65
2023/07/12 07:28:34;;;;;;;17.85;16.52;;;1357.70;998.40;;;;;;5070819;28;20040;-65
2023/07/12 07:31:00;;;;;;;18.45;17.25;;;1357.50;998.40;;;;;;5070428;28;20016;-65
2023/07/12 07:33:27;;;;;;;18.25;17.05;;;1357.40;1024.00;;;;;;5070698;28;20058;-65
2023/07/12 07:35:54;;;;;;;19.08;17.85;;;1357.40;1024.00;;;;;;5070257;28;20009;-66
2023/07/12 07:38:25;;;;;;;18.40;17.30;;;1382.60;1024.00;;;;;;5070201;28;20021;-65
2023/07/12 07:40:51;;;;;;;18.35;17.25;;;1357.70;998.40;;;;;;5070067;28;20135;-64
2023/07/12 07:43:17;;;;;;;18.02;16.83;;;1382.90;972.80;;;;;;5076823;28;20045;-66
2023/07/12 07:45:43;;;;;;;18.40;16.98;;;1357.40;998.40;;;;;;5070041;28;20446;-64
2023/07/12 07:48:10;;;;;;;17.52;16.10;;;1357.10;972.80;;;;;;5074466;28;20056;-65
2023/07/12 07:50:36;;;;;;;16.33;15.32;;;1357.50;972.80;;;;;;5090542;28;20063;-65
2023/07/12 07:53:02;;;;;;;16.83;15.60;;;1357.20;947.20;;;;;;5070978;28;20063;-65
2023/07/12 07:55:27;;;;;;;15.90;14.77;;;1357.50;921.60;;;;;;5069729;28;20088;-64
2023/07/12 07:57:53;;;;;;;16.08;14.88;;;1357.10;947.20;;;;;;5069749;28;20028;-65
2023/07/12 08:00:19;;;;;;;15.68;14.68;;;1331.60;896.00;;;;;;5073789;28;20028;-64
2023/07/12 08:02:46;;;;;;;15.95;14.95;;;1331.60;921.60;;;;;;5070040;28;20028;-64
2023/07/12 08:05:13;;;;;;;15.02;14.13;;;1331.60;947.20;;;;;;5069879;28;20379;-66
2023/07/12 08:07:39;;;;;;;17.13;15.60;;;1331.90;896.00;;;;;;5083669;28;20117;-66
2023/07/12 08:10:07;;;;;;;16.30;15.10;;;1331.60;921.60;;;;;;5085714;28;20036;-65
2023/07/12 08:12:33;;;;;;;15.27;14.15;;;1357.10;921.60;;;;;;5072193;28;20060;-66
2023/07/12 08:14:59;;;;;;;16.77;15.52;;;1357.10;921.60;;;;;;5069362;28;20119;-65
2023/07/12 08:17:25;;;;;;;16.33;14.85;;;1356.80;921.60;;;;;;5069443;28;20047;-65
2023/07/12 08:19:52;;;;;;;16.00;15.00;;;1331.60;896.00;;;;;;5070602;28;20390;-63
2023/07/12 08:22:21;;;;;;;15.90;14.63;;;1280.20;947.20;;;;;;5082159;28;20397;-66
2023/07/12 08:24:47;;;;;;;11.35;10.38;;;1229.00;1024.00;;;;;;5070620;28;20063;-64
2023/07/12 08:27:16;;;;;;;11.75;10.75;;;1152.70;1049.60;;;;;;5072631;28;20552;-64
2023/07/12 08:29:42;;;;;;;9.85;8.85;;;1126.60;1100.80;;;;;;5069114;28;20020;-65
2023/07/12 08:32:08;;;;;;;10.45;9.05;;;1100.90;1126.40;;;;;;5065758;28;20028;-64
2023/07/12 08:34:34;;;;;;;10.25;9.35;;;1075.30;1152.00;;;;;;5072034;28;20028;-63
2023/07/12 08:37:00;;;;;;;9.07;8.30;;;1050.20;1152.00;;;;;;5070551;28;20028;-63
2023/07/12 08:39:26;;;;;;;10.65;8.50;;;1049.70;1152.00;;;;;;5068616;28;20078;-63
2023/07/12 08:41:52;;;;;;;9.25;8.18;;;1024.90;1177.60;;;;;;5072366;28;20363;-63
2023/07/12 08:44:18;;;;;;;8.82;8.02;;;1024.50;1152.00;;;;;;5074176;28;20028;-63
2023/07/12 08:46:56;;;;;;;11.57;8.55;;;1024.10;1177.60;;;;;;5078773;28;20044;-63
2023/07/12 08:49:23;;;;;;;10.38;7.75;;;999.10;1177.60;;;;;;5073820;28;20052;-62
2023/07/12 08:51:49;;;;;;;11.65;8.23;;;999.20;1177.60;;;;;;5076951;28;20040;-64
2023/07/12 08:54:33;;;;;;;10.10;9.10;;;999.30;1203.20;;;;;;5077599;28;20303;-63
2023/07/12 08:57:23;;;;;;;10.60;7.88;;;999.20;1177.60;;;;;;5072639;28;20127;-63
2023/07/12 08:59:49;;;;;;;11.93;8.27;;;998.80;1228.80;;;;;;5069868;28;20024;-65
2023/07/12 09:02:23;;;;;;;11.23;7.57;;;998.80;1254.40;;;;;;5068244;28;20085;-63
2023/07/12 09:04:50;;;;;;;13.65;7.63;;;998.70;1228.80;;;;;;5071040;28;20042;-63
2023/07/12 09:07:27;;;;;;;11.38;8.02;;;998.80;1228.80;;;;;;5071021;28;20036;-63
2023/07/12 09:09:55;;;;;;;14.48;7.57;;;998.70;1280.00;;;;;;5075767;28;20024;-63
2023/07/12 09:12:32;;;;;;;9.27;7.63;;;998.50;1228.80;;;;;;5070422;28;20043;-62
2023/07/12 09:15:04;;;;;;;14.57;7.63;;;998.50;1254.40;;;;;;5068925;28;20446;-66
2023/07/12 09:17:38;;;;;;;9.93;7.30;;;998.40;1228.80;;;;;;5073873;28;20159;-63
2023/07/12 09:20:27;;;;;;;10.63;7.40;;;998.40;1280.00;;;;;;5070755;28;20030;-63
2023/07/12 09:22:54;;;;;;;11.27;8.48;;;998.50;1254.40;;;;;;5067693;28;20028;-64
2023/07/12 09:25:37;;;;;;;10.85;7.53;;;998.60;1280.00;;;;;;5070882;28;20021;-64
2023/07/12 09:28:04;;;;;;;11.27;7.38;;;998.40;1331.20;;;;;;5071010;28;20043;-63
2023/07/12 09:30:30;;;;;;;8.65;7.57;;;998.40;1305.60;;;;;;5069634;28;20032;-63
2023/07/12 09:32:57;;;;;;;14.82;8.93;;;998.40;1305.60;;;;;;5070532;28;20036;-62
2023/07/12 09:35:37;;;;;;;11.98;8.18;;;998.40;1280.00;;;;;;5072841;28;20375;-63
2023/07/12 09:38:08;;;;;;;11.60;8.10;;;973.70;1254.40;;;;;;5075795;28;20103;-63
2023/07/12 09:40:43;;;;;;;12.10;8.38;;;973.70;1280.00;;;;;;5075564;28;20023;-62
2023/07/12 09:43:21;;;;;;;13.35;8.00;;;973.50;1280.00;;;;;;5070074;28;20091;-62
2023/07/12 09:46:12;;;;;;;12.90;7.93;;;973.40;1331.20;;;;;;5080585;28;20111;-63
2023/07/12 09:48:56;;;;;;;11.32;8.50;;;973.50;1331.20;;;;;;5079176;28;20414;-64
2023/07/12 09:51:29;;;;;;;10.30;7.13;;;973.40;1280.00;;;;;;5075284;28;20414;-62
2023/07/12 09:54:20;;;;;;;11.48;7.72;;;973.30;1305.60;;;;;;5082218;28;20047;-63
2023/07/12 09:56:45;;;;;;;10.80;8.73;;;973.30;1356.80;;;;;;5073152;28;20032;-62
2023/07/12 09:59:40;;;;;;;15.32;9.23;;;973.20;1305.60;;;;;;5075086;28;20037;-64
2023/07/12 10:02:28;;;;;;;15.68;9.15;;;973.30;1356.80;;;;;;5082564;28;20028;-65
2023/07/12 10:04:59;;;;;;;12.80;8.73;;;973.10;1331.20;;;;;;5079245;28;20435;-65
2023/07/12 10:07:43;;;;;;;11.35;7.78;;;973.10;1408.00;;;;;;5077361;28;20501;-65
2023/07/12 10:10:22;;;;;;;13.60;8.25;;;973.20;1382.40;;;;;;5079761;28;20020;-64
2023/07/12 10:13:06;;;;;;;12.48;8.10;;;973.30;1382.40;;;;;;5075417;28;20077;-64
2023/07/12 10:15:34;;;;;;;14.77;8.70;;;973.20;1356.80;;;;;;5072834;28;20431;-65
2023/07/12 10:18:02;;;;;;;13.65;8.35;;;973.20;1382.40;;;;;;5091817;28;20047;-64
2023/07/12 10:20:28;;;;;;;13.60;7.45;;;973.20;1408.00;;;;;;5092193;28;20111;-65
2023/07/12 10:22:54;;;;;;;14.07;8.75;;;973.20;1331.20;;;;;;5071778;28;20108;-65
2023/07/12 10:25:30;;;;;;;12.52;8.07;;;973.20;1382.40;;;;;;5085196;28;20066;-66
2023/07/12 10:28:19;;;;;;;15.77;8.32;;;973.10;1305.60;;;;;;5079655;28;20501;-65
2023/07/12 10:30:48;;;;;;;13.95;7.82;;;973.20;1305.60;;;;;;5075381;28;20025;-62
2023/07/12 10:33:26;;;;;;;13.00;8.00;;;973.20;1331.20;;;;;;5081883;28;20032;-65
2023/07/12 10:36:09;;;;;;;14.38;8.32;;;973.10;1331.20;;;;;;5079461;28;20527;-65
2023/07/12 10:38:35;;;;;;;12.63;9.27;;;973.40;1331.20;;;;;;5092241;28;20051;-65
2023/07/12 10:41:15;;;;;;;13.57;8.38;;;973.60;1356.80;;;;;;5091718;28;20501;-65
2023/07/12 10:43:46;;;;;;;11.68;8.70;;;973.60;1280.00;;;;;;5091387;28;20024;-65
2023/07/12 10:46:30;;;;;;;13.48;7.53;;;973.40;1280.00;;;;;;5091392;28;20508;-66
2023/07/12 10:48:56;;;;;;;14.55;8.57;;;973.30;1280.00;;;;;;5082344;28;20086;-64
2023/07/12 10:51:45;;;;;;;14.10;8.15;;;973.20;1305.60;;;;;;5076504;28;20032;-65
2023/07/12 10:54:29;;;;;;;13.57;7.78;;;973.00;1305.60;;;;;;5078065;28;20028;-64
2023/07/12 10:57:03;;;;;;;11.13;8.60;;;973.30;1331.20;;;;;;5070688;28;20064;-65
2023/07/12 10:59:32;;;;;;;12.18;7.95;;;973.20;1280.00;;;;;;5071992;28;20082;-66
2023/07/12 11:02:03;;;;;;;16.98;9.10;;;973.10;1280.00;;;;;;5077138;28;20466;-66
2023/07/12 11:04:32;;;;;;;15.43;8.25;;;973.10;1331.20;;;;;;5076718;28;20025;-65
2023/07/12 11:07:00;;;;;;;10.52;7.85;;;973.00;1305.60;;;;;;5071442;28;20042;-66
2023/07/12 11:09:52;;;;;;;18.15;8.30;;;972.80;1305.60;;;;;;5091392;28;20059;-65
2023/07/12 11:12:38;;;;;;;15.07;8.38;;;948.10;1305.60;;;;;;5059454;28;20116;-66
2023/07/12 11:15:13;;;;;;;12.02;7.75;;;972.80;1356.80;;;;;;5089684;28;20050;-64
2023/07/12 11:18:00;;;;;;;12.02;7.68;;;973.10;1382.40;;;;;;5090996;28;20032;-65
2023/07/12 11:20:34;;;;;;;14.25;7.63;;;973.00;1382.40;;;;;;5091056;28;20028;-64
2023/07/12 11:23:06;;;;;;;15.98;8.43;;;973.20;1382.40;;;;;;5090543;28;20031;-65
2023/07/12 11:25:44;;;;;;;13.80;8.05;;;973.30;1356.80;;;;;;5090584;28;20020;-65
2023/07/12 11:28:22;;;;;;;14.13;7.97;;;973.30;1280.00;;;;;;5090820;28;20039;-65
2023/07/12 11:31:12;;;;;;;10.82;7.22;;;973.60;1280.00;;;;;;5090793;28;20012;-65
2023/07/12 11:33:41;;;;;;;13.82;8.18;;;973.60;1305.60;;;;;;5079055;28;20077;-65
2023/07/12 11:36:19;;;;;;;11.10;8.80;;;973.50;1356.80;;;;;;5090988;28;20028;-66
2023/07/12 11:38:46;;;;;;;12.82;9.07;;;973.50;1382.40;;;;;;5090517;28;20054;-65
2023/07/12 11:41:16;;;;;;;15.25;8.18;;;973.50;1382.40;;;;;;5090404;28;20028;-65
2023/07/12 11:43:42;;;;;;;10.65;8.32;;;973.50;1433.60;;;;;;5090199;28;20031;-64
2023/07/12 11:46:19;;;;;;;16.95;9.23;;;973.60;1305.60;;;;;;5090105;28;20020;-66
2023/07/12 11:48:58;;;;;;;13.60;7.97;;;973.60;1331.20;;;;;;5090590;28;20016;-66
2023/07/12 11:51:35;;;;;;;13.10;8.15;;;973.40;1382.40;;;;;;5090477;28;20424;-64
2023/07/12 11:54:03;;;;;;;18.00;8.65;;;973.30;1382.40;;;;;;5090519;28;20012;-64
2023/07/12 11:56:29;;;;;;;16.85;8.05;;;973.20;1356.80;;;;;;5089909;28;20019;-65
2023/07/12 11:58:55;;;;;;;13.68;8.98;;;973.20;1382.40;;;;;;5090661;28;20496;-64
2023/07/12 12:01:23;;;;;;;12.45;8.65;;;973.00;1408.00;;;;;;5090106;28;20052;-66
2023/07/12 12:03:51;;;;;;;14.60;8.15;;;948.10;1408.00;;;;;;5090410;28;20028;-65
2023/07/12 12:06:17;;;;;;;15.57;8.95;;;;;;;;;;5089817;28;20077;-65
2023/07/12 12:08:54;;;;;;;15.57;7.75;;;948.10;1305.60;;;;;;5090178;28;20031;-65
2023/07/12 12:11:21;;;;;;;12.55;8.10;;;947.90;1305.60;;;;;;5089970;28;20012;-65